This is the latest recevied weather packets stored in our database for station/object KQ4WWD. If no packets are shown the sender has not sent any weather packets the latest 10 day(s).
| Time | Temp. | Humidity | Pressure | Rain* | Wind** | Luminosity | Snow |
|---|---|---|---|---|---|---|---|
| 1788460841 | 31.11° C | 80% | 1013.6 hPa | 0 mm | - | 204 W/m² | - |
| 1788460540 | 31.11° C | 79% | 1013.7 hPa | 0 mm | - | 203 W/m² | - |
| 1788460235 | 31.67° C | 78% | 1013.4 hPa | 0 mm | - | 227 W/m² | - |
| 1788459933 | 31.11° C | 77% | 1013.6 hPa | 0 mm | - | 244 W/m² | - |
| 1788459630 | 32.22° C | 74% | 1013.6 hPa | 0 mm | - | 354 W/m² | - |
| 1788459328 | 32.22° C | 73% | 1013.6 hPa | 0 mm | - | 518 W/m² | - |
| 1788459023 | 31.67° C | 75% | 1013.8 hPa | 0 mm | - | 723 W/m² | - |
| 1788458719 | 31.67° C | 76% | 1014.1 hPa | 0 mm | - | 544 W/m² | - |
| 1788458418 | 31.67° C | 75% | 1013.8 hPa | 0 mm | - | 439 W/m² | - |
| 1788458117 | 32.22° C | 73% | 1013.7 hPa | 0 mm | - | 376 W/m² | - |
| 1788457816 | 32.78° C | 73% | 1013.9 hPa | 0 mm | - | 779 W/m² | - |
| 1788457512 | 32.22° C | 72% | 1014 hPa | 0 mm | - | 911 W/m² | - |
| 1788457212 | 32.22° C | 73% | 1014.2 hPa | 0 mm | - | 803 W/m² | - |
| 1788456906 | 32.22° C | 76% | 1014.2 hPa | 0 mm | - | 842 W/m² | - |
| 1788456603 | 32.78° C | 75% | 1014.5 hPa | 0 mm | - | 832 W/m² | - |
| 1788456297 | 32.22° C | 77% | 1014.5 hPa | 0 mm | - | 637 W/m² | - |
| 1788455992 | 32.78° C | 76% | 1014.7 hPa | 0 mm | - | 627 W/m² | - |
| 1788455687 | 32.22° C | 77% | 1014.6 hPa | 0 mm | - | 980 W/m² | - |
| 1788455382 | 31.67° C | 78% | 1014.4 hPa | 0 mm | - | 1001 W/m² | - |
| 1788455077 | 31.67° C | 79% | 1014.6 hPa | 0 mm | - | 658 W/m² | - |
| 1788454776 | 31.67° C | 78% | 1014.5 hPa | 0 mm | - | 538 W/m² | - |
| 1788454470 | 31.67° C | 78% | 1014.5 hPa | 0 mm | - | 567 W/m² | - |
| 1788454171 | 31.11° C | 79% | 1014.8 hPa | 0 mm | - | 601 W/m² | - |
| 1788453866 | 31.67° C | 79% | 1015 hPa | 0 mm | - | 394 W/m² | - |
| 1788453565 | 32.22° C | 77% | 1015 hPa | 0 mm | - | 924 W/m² | - |
* Rain latest hour (hover to see other rain measurements)
** Current wind speed in m/s (hover to see current wind gust speed)